Flight Track Log - Related Links

Times and Time Zones

All times are in EDT time to prevent confusion due to time zone crossing. See the N319EE flight status page for this flight to view local times or setup timezone preferences in your user account.

Time Position Orientation Groundspeed Altitude Reporting Facility
EDT Latitude Longitude Course Direction KTS MPH feet Rate Location/Type
Wed 03:52:25 PM 42.2342 -76.0194 308° West 164 189 2,800  Level New York Center
Wed 03:53:09 PM 42.2567 -76.0586 308° West 206 237 4,200 1,981 Climbing Cleveland Center
Wed 03:54:11 PM 42.2803 -76.0964 310° West 150 173 6,300 1,790 Climbing Cleveland Center
Wed 03:55:13 PM 42.3094 -76.1475 308° West 165 190 7,900 1,210 Climbing Cleveland Center
Wed 03:56:15 PM 42.3442 -76.2114 306° West 201 231 8,800 976 Climbing Cleveland Center
Wed 03:57:16 PM 42.3758 -76.2703 306° West 199 229 9,900 537 Climbing Cleveland Center
Wed 03:58:18 PM 42.4169 -76.3461 306° West 209 241 9,900  Level Cleveland Center
Wed 03:59:20 PM 42.4511 -76.4089 306° West 210 242 9,900  Level Cleveland Center
Wed 04:00:22 PM 42.4850 -76.4719 306° West 210 242 9,900  Level Cleveland Center
Wed 04:01:24 PM 42.5186 -76.5333 307° West 208 239 9,900  Level Cleveland Center
Wed 04:02:25 PM 42.5519 -76.5961 306° West 207 238 9,900  Level Cleveland Center
Wed 04:03:27 PM 42.5850 -76.6583 306° West 206 237 9,900  Level Cleveland Center
Wed 04:04:29 PM 42.6264 -76.7344 306° West 206 237 9,900 59 Level Cleveland Center
Wed 04:05:08 PM 42.6481 -76.7764 305° West 208 239 10,000  Climbing Cleveland Center
Wed 04:05:31 PM 42.6603 -76.7975 308° West 206 237 9,900 -197 Descending Cleveland Center
Wed 04:06:09 PM 42.6819 -76.8394 305° West 207 238 9,800 -484 Descending Cleveland Center
Wed 04:06:33 PM 42.6939 -76.8619 306° West 207 238 9,400 -984 Descending Cleveland Center
Wed 04:07:10 PM 42.7189 -76.9092 306° West 228 262 8,800 -1,065 Descending Cleveland Center
Wed 04:07:35 PM 42.7319 -76.9331 307° West 225 259 8,300 -1,000 Descending Cleveland Center
Wed 04:08:10 PM 42.7575 -76.9850 304° West 247 284 7,800 -968 Descending Cleveland Center
Wed 04:08:37 PM 42.7719 -77.0097 309° West 242 278 7,300 -1,180 Descending Cleveland Center
Wed 04:09:11 PM 42.7997 -77.0619 306° West 254 292 6,600 -1,180 Descending Cleveland Center
Wed 04:09:38 PM 42.8133 -77.0869 307° West 249 287 6,100 -1,364 Descending Cleveland Center
Wed 04:10:17 PM 42.8517 -77.1469 311° West 255 293 5,100 -1,355 Descending Cleveland Center
Wed 04:10:40 PM 42.8697 -77.1708 316° Northwest 250 288 4,700 -984 Descending Cleveland Center
Wed 04:11:18 PM 42.9025 -77.2092 319° Northwest 246 283 4,100 -677 Descending Cleveland Center
Wed 04:11:42 PM 42.9203 -77.2328 316° Northwest 250 288 4,000 -98 Descending Cleveland Center
Wed 04:12:19 PM 42.9492 -77.2703 316° Northwest 232 267 4,000  Level Cleveland Center
Wed 04:12:44 PM 42.9669 -77.2889 323° Northwest 234 269 4,000  Level Cleveland Center
Wed 04:13:25 PM 43.0019 -77.3328 317° Northwest 215 247 4,000 -290 Level Cleveland Center
Wed 04:13:46 PM 43.0122 -77.3419 327° Northwest 222 255 3,700 -1,377 Descending Cleveland Center
Wed 04:14:26 PM 43.0533 -77.3897 320° Northwest 246 283 2,600 -1,180 Descending Cleveland Center
Wed 04:14:47 PM 43.0631 -77.4006 321° Northwest 231 266 2,500 -295 Descending Cleveland Center
Wed 04:15:27 PM 43.1028 -77.4458 320° Northwest 225 259 2,300 -194 Descending Cleveland Center
Wed 04:15:49 PM 43.1122 -77.4556 323° Northwest 234 269 2,300  Level Cleveland Center
Wed 04:16:27 PM 43.1264 -77.5042 292° West 173 199 2,300  Level Cleveland Center
Wed 04:16:51 PM 43.1269 -77.5281 272° West 193 222 2,300 -393 Level Cleveland Center
Wed 04:17:28 PM 43.1261 -77.5650 268° West 149 171 1,900 -581 Descending Cleveland Center
Wed 04:17:53 PM 43.1261 -77.5839 270° West 165 190 1,700 -700 Descending Cleveland Center
Wed 04:18:28 PM 43.1228 -77.6192 263° West 146 168 1,200 -774 Descending Cleveland Center
Wed 04:18:55 PM 43.1244 -77.6392 277° West 154 177 900 -409 Descending Cleveland Center
Wed 04:19:56 PM 43.1219 -77.6858 266° West 149 171 600 -295 Descending Cleveland Center
Wed 04:21:00 PM 43.1167 -77.6667 90° East  Level FlightAware Approximate

Login

Don't have an account? Register now (free) for customized features, flight alerts, and more!